sensor_id;sensor_type;location;lat;lon;timestamp;P1;durP1;ratioP1;P2;durP2;ratioP2
40541;SDS011;49288;52.194;5.676;2023-08-17T00:02:40;6.03;;;2.85;;
40541;SDS011;49288;52.194;5.676;2023-08-17T00:07:43;10.35;;;3.58;;
40541;SDS011;49288;52.194;5.676;2023-08-17T00:12:47;13.48;;;3.58;;
40541;SDS011;49288;52.194;5.676;2023-08-17T00:23:13;7.03;;;2.88;;
40541;SDS011;49288;52.194;5.676;2023-08-17T00:28:17;11.40;;;3.33;;
40541;SDS011;49288;52.194;5.676;2023-08-17T00:38:24;10.00;;;3.05;;
40541;SDS011;49288;52.194;5.676;2023-08-17T00:43:27;7.28;;;3.03;;
40541;SDS011;49288;52.194;5.676;2023-08-17T00:48:30;6.88;;;3.17;;
40541;SDS011;49288;52.194;5.676;2023-08-17T00:53:35;7.22;;;2.78;;
40541;SDS011;49288;52.194;5.676;2023-08-17T00:58:38;6.50;;;3.07;;
40541;SDS011;49288;52.194;5.676;2023-08-17T01:03:42;8.57;;;3.47;;
40541;SDS011;49288;52.194;5.676;2023-08-17T01:08:47;6.50;;;3.00;;
40541;SDS011;49288;52.194;5.676;2023-08-17T01:18:58;6.93;;;2.90;;
40541;SDS011;49288;52.194;5.676;2023-08-17T01:24:03;9.20;;;3.53;;
40541;SDS011;49288;52.194;5.676;2023-08-17T01:29:07;6.28;;;2.70;;
40541;SDS011;49288;52.194;5.676;2023-08-17T01:34:10;6.38;;;2.88;;
40541;SDS011;49288;52.194;5.676;2023-08-17T01:39:21;9.57;;;2.95;;
40541;SDS011;49288;52.194;5.676;2023-08-17T01:44:27;8.10;;;3.17;;
40541;SDS011;49288;52.194;5.676;2023-08-17T01:49:31;7.93;;;3.10;;
40541;SDS011;49288;52.194;5.676;2023-08-17T01:54:34;11.32;;;3.45;;
40541;SDS011;49288;52.194;5.676;2023-08-17T01:59:37;7.05;;;3.00;;
40541;SDS011;49288;52.194;5.676;2023-08-17T02:04:40;7.05;;;3.40;;
40541;SDS011;49288;52.194;5.676;2023-08-17T02:15:08;13.52;;;3.40;;
40541;SDS011;49288;52.194;5.676;2023-08-17T02:20:11;15.02;;;3.33;;
40541;SDS011;49288;52.194;5.676;2023-08-17T02:25:17;9.23;;;3.20;;
40541;SDS011;49288;52.194;5.676;2023-08-17T02:30:21;11.13;;;3.38;;
40541;SDS011;49288;52.194;5.676;2023-08-17T02:35:26;5.15;;;3.25;;
40541;SDS011;49288;52.194;5.676;2023-08-17T02:40:29;6.57;;;3.17;;
40541;SDS011;49288;52.194;5.676;2023-08-17T02:45:33;7.43;;;3.30;;
40541;SDS011;49288;52.194;5.676;2023-08-17T02:50:38;6.10;;;2.72;;
40541;SDS011;49288;52.194;5.676;2023-08-17T02:55:42;11.70;;;3.20;;
40541;SDS011;49288;52.194;5.676;2023-08-17T03:00:46;8.70;;;3.10;;
40541;SDS011;49288;52.194;5.676;2023-08-17T03:05:48;11.05;;;3.50;;
40541;SDS011;49288;52.194;5.676;2023-08-17T03:10:51;15.05;;;3.70;;
40541;SDS011;49288;52.194;5.676;2023-08-17T03:20:58;10.48;;;3.47;;
40541;SDS011;49288;52.194;5.676;2023-08-17T03:26:01;7.25;;;3.35;;
40541;SDS011;49288;52.194;5.676;2023-08-17T03:31:05;10.03;;;3.53;;
40541;SDS011;49288;52.194;5.676;2023-08-17T03:36:09;16.25;;;3.58;;
40541;SDS011;49288;52.194;5.676;2023-08-17T03:41:12;11.85;;;3.25;;
40541;SDS011;49288;52.194;5.676;2023-08-17T03:46:16;10.27;;;3.80;;
40541;SDS011;49288;52.194;5.676;2023-08-17T03:51:19;8.73;;;3.50;;
40541;SDS011;49288;52.194;5.676;2023-08-17T03:56:22;12.50;;;3.40;;
40541;SDS011;49288;52.194;5.676;2023-08-17T04:01:25;11.30;;;3.38;;
40541;SDS011;49288;52.194;5.676;2023-08-17T04:06:28;10.43;;;3.70;;
40541;SDS011;49288;52.194;5.676;2023-08-17T04:11:37;9.10;;;3.13;;
40541;SDS011;49288;52.194;5.676;2023-08-17T04:16:40;9.43;;;3.55;;
40541;SDS011;49288;52.194;5.676;2023-08-17T04:21:44;6.00;;;3.08;;
40541;SDS011;49288;52.194;5.676;2023-08-17T04:26:47;6.83;;;3.10;;
40541;SDS011;49288;52.194;5.676;2023-08-17T04:31:51;10.88;;;3.00;;
40541;SDS011;49288;52.194;5.676;2023-08-17T04:36:54;10.13;;;3.15;;
40541;SDS011;49288;52.194;5.676;2023-08-17T04:41:59;9.95;;;3.42;;
40541;SDS011;49288;52.194;5.676;2023-08-17T04:47:06;5.30;;;3.05;;
40541;SDS011;49288;52.194;5.676;2023-08-17T04:52:10;8.93;;;3.03;;
40541;SDS011;49288;52.194;5.676;2023-08-17T04:57:13;15.02;;;3.50;;
40541;SDS011;49288;52.194;5.676;2023-08-17T05:02:17;10.18;;;3.45;;
40541;SDS011;49288;52.194;5.676;2023-08-17T05:07:19;12.77;;;4.97;;
40541;SDS011;49288;52.194;5.676;2023-08-17T05:12:22;11.52;;;3.55;;
40541;SDS011;49288;52.194;5.676;2023-08-17T05:17:26;12.10;;;3.60;;
40541;SDS011;49288;52.194;5.676;2023-08-17T05:22:31;8.35;;;3.70;;
40541;SDS011;49288;52.194;5.676;2023-08-17T05:27:34;11.00;;;3.60;;
40541;SDS011;49288;52.194;5.676;2023-08-17T05:32:39;7.57;;;3.15;;
40541;SDS011;49288;52.194;5.676;2023-08-17T05:37:43;12.02;;;3.88;;
40541;SDS011;49288;52.194;5.676;2023-08-17T05:42:46;8.30;;;3.30;;
40541;SDS011;49288;52.194;5.676;2023-08-17T05:47:49;9.70;;;3.72;;
40541;SDS011;49288;52.194;5.676;2023-08-17T05:52:55;6.90;;;3.22;;
40541;SDS011;49288;52.194;5.676;2023-08-17T05:57:59;11.40;;;3.20;;
40541;SDS011;49288;52.194;5.676;2023-08-17T06:03:03;11.20;;;3.13;;
40541;SDS011;49288;52.194;5.676;2023-08-17T06:08:06;13.67;;;3.90;;
40541;SDS011;49288;52.194;5.676;2023-08-17T06:13:09;12.82;;;3.78;;
40541;SDS011;49288;52.194;5.676;2023-08-17T06:18:13;9.57;;;3.47;;
40541;SDS011;49288;52.194;5.676;2023-08-17T06:23:17;8.60;;;3.42;;
40541;SDS011;49288;52.194;5.676;2023-08-17T06:28:20;11.00;;;3.77;;
40541;SDS011;49288;52.194;5.676;2023-08-17T06:33:24;9.93;;;3.90;;
40541;SDS011;49288;52.194;5.676;2023-08-17T06:38:27;14.50;;;4.03;;
40541;SDS011;49288;52.194;5.676;2023-08-17T06:43:29;12.40;;;3.55;;
40541;SDS011;49288;52.194;5.676;2023-08-17T06:48:33;10.75;;;4.07;;
40541;SDS011;49288;52.194;5.676;2023-08-17T06:53:36;10.47;;;3.40;;
40541;SDS011;49288;52.194;5.676;2023-08-17T06:58:39;8.07;;;3.42;;
40541;SDS011;49288;52.194;5.676;2023-08-17T07:08:46;13.57;;;4.32;;
40541;SDS011;49288;52.194;5.676;2023-08-17T07:13:50;15.40;;;4.50;;
40541;SDS011;49288;52.194;5.676;2023-08-17T07:19:12;12.13;;;4.20;;
40541;SDS011;49288;52.194;5.676;2023-08-17T07:24:16;11.45;;;3.40;;
40541;SDS011;49288;52.194;5.676;2023-08-17T07:29:21;18.13;;;4.93;;
40541;SDS011;49288;52.194;5.676;2023-08-17T07:34:26;15.55;;;3.75;;
40541;SDS011;49288;52.194;5.676;2023-08-17T07:39:30;12.82;;;3.78;;
40541;SDS011;49288;52.194;5.676;2023-08-17T07:44:33;10.23;;;3.25;;
40541;SDS011;49288;52.194;5.676;2023-08-17T07:49:37;17.67;;;3.33;;
40541;SDS011;49288;52.194;5.676;2023-08-17T07:54:40;7.75;;;3.15;;
40541;SDS011;49288;52.194;5.676;2023-08-17T08:00:02;7.25;;;3.28;;
40541;SDS011;49288;52.194;5.676;2023-08-17T08:05:09;9.00;;;3.30;;
40541;SDS011;49288;52.194;5.676;2023-08-17T08:10:14;11.35;;;3.78;;
40541;SDS011;49288;52.194;5.676;2023-08-17T08:15:18;11.70;;;2.90;;
40541;SDS011;49288;52.194;5.676;2023-08-17T08:20:21;13.70;;;3.38;;
40541;SDS011;49288;52.194;5.676;2023-08-17T08:25:24;10.57;;;3.75;;
40541;SDS011;49288;52.194;5.676;2023-08-17T08:30:27;10.02;;;2.97;;
40541;SDS011;49288;52.194;5.676;2023-08-17T08:35:30;9.95;;;3.42;;
40541;SDS011;49288;52.194;5.676;2023-08-17T08:40:33;9.90;;;2.70;;
40541;SDS011;49288;52.194;5.676;2023-08-17T08:45:43;17.77;;;3.70;;
40541;SDS011;49288;52.194;5.676;2023-08-17T08:50:47;10.07;;;3.22;;
40541;SDS011;49288;52.194;5.676;2023-08-17T08:55:55;9.25;;;3.38;;
40541;SDS011;49288;52.194;5.676;2023-08-17T09:01:02;9.55;;;3.20;;
40541;SDS011;49288;52.194;5.676;2023-08-17T09:06:09;13.43;;;3.83;;
40541;SDS011;49288;52.194;5.676;2023-08-17T09:11:13;10.15;;;3.40;;
40541;SDS011;49288;52.194;5.676;2023-08-17T09:16:16;18.87;;;3.27;;
40541;SDS011;49288;52.194;5.676;2023-08-17T09:21:23;13.65;;;3.47;;
40541;SDS011;49288;52.194;5.676;2023-08-17T09:26:30;14.15;;;4.32;;
40541;SDS011;49288;52.194;5.676;2023-08-17T09:31:39;13.73;;;4.00;;
40541;SDS011;49288;52.194;5.676;2023-08-17T09:36:47;16.27;;;4.25;;
40541;SDS011;49288;52.194;5.676;2023-08-17T09:41:50;9.77;;;3.80;;
40541;SDS011;49288;52.194;5.676;2023-08-17T09:46:56;17.63;;;4.78;;
40541;SDS011;49288;52.194;5.676;2023-08-17T09:52:00;10.82;;;3.95;;
40541;SDS011;49288;52.194;5.676;2023-08-17T09:57:04;14.20;;;4.43;;
40541;SDS011;49288;52.194;5.676;2023-08-17T10:02:25;10.20;;;4.67;;
40541;SDS011;49288;52.194;5.676;2023-08-17T10:07:31;16.38;;;4.65;;
40541;SDS011;49288;52.194;5.676;2023-08-17T10:12:44;13.40;;;4.95;;
40541;SDS011;49288;52.194;5.676;2023-08-17T10:23:28;11.63;;;4.18;;
40541;SDS011;49288;52.194;5.676;2023-08-17T10:28:31;15.93;;;4.70;;
40541;SDS011;49288;52.194;5.676;2023-08-17T10:33:34;13.80;;;4.45;;
40541;SDS011;49288;52.194;5.676;2023-08-17T10:38:37;18.40;;;4.37;;
40541;SDS011;49288;52.194;5.676;2023-08-17T10:43:52;16.17;;;5.17;;
40541;SDS011;49288;52.194;5.676;2023-08-17T10:49:05;16.25;;;4.75;;
40541;SDS011;49288;52.194;5.676;2023-08-17T10:54:09;11.52;;;4.80;;
40541;SDS011;49288;52.194;5.676;2023-08-17T10:59:24;18.10;;;5.20;;
40541;SDS011;49288;52.194;5.676;2023-08-17T11:04:32;12.73;;;4.72;;
40541;SDS011;49288;52.194;5.676;2023-08-17T11:09:35;14.60;;;5.10;;
40541;SDS011;49288;52.194;5.676;2023-08-17T11:14:46;10.43;;;4.20;;
40541;SDS011;49288;52.194;5.676;2023-08-17T11:19:49;12.93;;;4.85;;
40541;SDS011;49288;52.194;5.676;2023-08-17T11:29:57;14.10;;;4.70;;
40541;SDS011;49288;52.194;5.676;2023-08-17T11:35:00;10.10;;;4.27;;
40541;SDS011;49288;52.194;5.676;2023-08-17T11:40:03;12.57;;;4.72;;
40541;SDS011;49288;52.194;5.676;2023-08-17T11:45:08;9.93;;;4.88;;
40541;SDS011;49288;52.194;5.676;2023-08-17T11:50:14;9.98;;;4.30;;
40541;SDS011;49288;52.194;5.676;2023-08-17T11:55:22;13.80;;;4.80;;
40541;SDS011;49288;52.194;5.676;2023-08-17T12:00:25;11.87;;;5.03;;
40541;SDS011;49288;52.194;5.676;2023-08-17T12:05:28;11.43;;;5.13;;
40541;SDS011;49288;52.194;5.676;2023-08-17T12:10:33;11.00;;;4.43;;
40541;SDS011;49288;52.194;5.676;2023-08-17T12:15:37;14.63;;;4.55;;
40541;SDS011;49288;52.194;5.676;2023-08-17T12:20:40;12.10;;;4.70;;
40541;SDS011;49288;52.194;5.676;2023-08-17T12:25:45;13.27;;;5.13;;
40541;SDS011;49288;52.194;5.676;2023-08-17T12:30:55;10.87;;;5.57;;
40541;SDS011;49288;52.194;5.676;2023-08-17T12:36:02;11.23;;;4.50;;
40541;SDS011;49288;52.194;5.676;2023-08-17T12:41:06;10.82;;;4.60;;
40541;SDS011;49288;52.194;5.676;2023-08-17T12:46:09;10.33;;;4.30;;
40541;SDS011;49288;52.194;5.676;2023-08-17T12:51:13;11.00;;;4.30;;
40541;SDS011;49288;52.194;5.676;2023-08-17T12:56:16;9.32;;;4.53;;
40541;SDS011;49288;52.194;5.676;2023-08-17T13:01:20;8.85;;;4.20;;
40541;SDS011;49288;52.194;5.676;2023-08-17T13:06:23;12.80;;;5.13;;
40541;SDS011;49288;52.194;5.676;2023-08-17T13:11:34;11.30;;;4.18;;
40541;SDS011;49288;52.194;5.676;2023-08-17T13:16:39;9.30;;;5.00;;
40541;SDS011;49288;52.194;5.676;2023-08-17T13:21:42;9.98;;;5.60;;
40541;SDS011;49288;52.194;5.676;2023-08-17T13:26:45;22.43;;;5.70;;
40541;SDS011;49288;52.194;5.676;2023-08-17T13:31:48;17.75;;;5.35;;
40541;SDS011;49288;52.194;5.676;2023-08-17T13:36:51;17.83;;;5.70;;
40541;SDS011;49288;52.194;5.676;2023-08-17T13:41:56;10.75;;;5.00;;
40541;SDS011;49288;52.194;5.676;2023-08-17T13:47:00;11.68;;;6.10;;
40541;SDS011;49288;52.194;5.676;2023-08-17T13:52:03;11.10;;;5.70;;
40541;SDS011;49288;52.194;5.676;2023-08-17T13:57:06;12.38;;;5.45;;
40541;SDS011;49288;52.194;5.676;2023-08-17T14:02:09;19.73;;;5.40;;
40541;SDS011;49288;52.194;5.676;2023-08-17T14:07:12;12.17;;;4.90;;
40541;SDS011;49288;52.194;5.676;2023-08-17T14:12:15;12.80;;;5.87;;
40541;SDS011;49288;52.194;5.676;2023-08-17T14:17:18;12.07;;;6.10;;
40541;SDS011;49288;52.194;5.676;2023-08-17T14:22:21;11.50;;;7.40;;
40541;SDS011;49288;52.194;5.676;2023-08-17T14:27:26;18.83;;;6.78;;
40541;SDS011;49288;52.194;5.676;2023-08-17T14:32:29;12.77;;;5.57;;
40541;SDS011;49288;52.194;5.676;2023-08-17T14:37:36;12.57;;;6.40;;
40541;SDS011;49288;52.194;5.676;2023-08-17T14:42:39;20.10;;;7.53;;
40541;SDS011;49288;52.194;5.676;2023-08-17T14:47:43;15.55;;;6.82;;
40541;SDS011;49288;52.194;5.676;2023-08-17T14:53:05;12.45;;;6.18;;
40541;SDS011;49288;52.194;5.676;2023-08-17T15:03:12;15.27;;;6.07;;
40541;SDS011;49288;52.194;5.676;2023-08-17T15:08:17;14.65;;;6.88;;
40541;SDS011;49288;52.194;5.676;2023-08-17T15:13:20;13.52;;;6.72;;
40541;SDS011;49288;52.194;5.676;2023-08-17T15:18:25;11.80;;;6.30;;
40541;SDS011;49288;52.194;5.676;2023-08-17T15:23:28;58.97;;;8.43;;
40541;SDS011;49288;52.194;5.676;2023-08-17T15:28:30;13.97;;;6.17;;
40541;SDS011;49288;52.194;5.676;2023-08-17T15:33:52;16.48;;;7.47;;
40541;SDS011;49288;52.194;5.676;2023-08-17T15:38:55;13.23;;;7.57;;
40541;SDS011;49288;52.194;5.676;2023-08-17T15:43:58;17.83;;;8.97;;
40541;SDS011;49288;52.194;5.676;2023-08-17T15:49:01;13.37;;;9.33;;
40541;SDS011;49288;52.194;5.676;2023-08-17T15:54:04;20.37;;;8.80;;
40541;SDS011;49288;52.194;5.676;2023-08-17T15:59:07;13.87;;;9.00;;
40541;SDS011;49288;52.194;5.676;2023-08-17T16:04:10;17.43;;;8.57;;
40541;SDS011;49288;52.194;5.676;2023-08-17T16:09:13;15.90;;;7.93;;
40541;SDS011;49288;52.194;5.676;2023-08-17T16:14:16;14.93;;;7.77;;
40541;SDS011;49288;52.194;5.676;2023-08-17T16:19:19;14.75;;;8.32;;
40541;SDS011;49288;52.194;5.676;2023-08-17T16:24:25;15.75;;;8.60;;
40541;SDS011;49288;52.194;5.676;2023-08-17T16:29:28;23.95;;;8.32;;
40541;SDS011;49288;52.194;5.676;2023-08-17T16:34:31;16.73;;;9.13;;
40541;SDS011;49288;52.194;5.676;2023-08-17T16:39:36;13.95;;;8.63;;
40541;SDS011;49288;52.194;5.676;2023-08-17T16:44:39;15.93;;;9.75;;
40541;SDS011;49288;52.194;5.676;2023-08-17T16:49:42;17.47;;;8.97;;
40541;SDS011;49288;52.194;5.676;2023-08-17T16:54:45;14.10;;;8.27;;
40541;SDS011;49288;52.194;5.676;2023-08-17T16:59:49;13.82;;;8.45;;
40541;SDS011;49288;52.194;5.676;2023-08-17T17:04:52;15.75;;;10.07;;
40541;SDS011;49288;52.194;5.676;2023-08-17T17:09:54;12.40;;;8.38;;
40541;SDS011;49288;52.194;5.676;2023-08-17T17:14:57;15.18;;;8.90;;
40541;SDS011;49288;52.194;5.676;2023-08-17T17:20:00;16.70;;;9.10;;
40541;SDS011;49288;52.194;5.676;2023-08-17T17:25:04;17.23;;;9.65;;
40541;SDS011;49288;52.194;5.676;2023-08-17T17:30:11;17.35;;;8.95;;
40541;SDS011;49288;52.194;5.676;2023-08-17T17:35:14;19.80;;;9.52;;
40541;SDS011;49288;52.194;5.676;2023-08-17T17:40:17;17.77;;;10.90;;
40541;SDS011;49288;52.194;5.676;2023-08-17T17:45:20;16.17;;;10.10;;
40541;SDS011;49288;52.194;5.676;2023-08-17T17:50:22;15.77;;;9.45;;
40541;SDS011;49288;52.194;5.676;2023-08-17T17:55:25;19.23;;;11.03;;
40541;SDS011;49288;52.194;5.676;2023-08-17T18:00:29;16.27;;;10.40;;
40541;SDS011;49288;52.194;5.676;2023-08-17T18:05:32;21.08;;;11.90;;
40541;SDS011;49288;52.194;5.676;2023-08-17T18:10:36;21.88;;;11.68;;
40541;SDS011;49288;52.194;5.676;2023-08-17T18:15:39;19.40;;;11.35;;
40541;SDS011;49288;52.194;5.676;2023-08-17T18:20:44;17.27;;;10.23;;
40541;SDS011;49288;52.194;5.676;2023-08-17T18:25:46;21.13;;;12.52;;
40541;SDS011;49288;52.194;5.676;2023-08-17T18:30:49;19.03;;;12.20;;
40541;SDS011;49288;52.194;5.676;2023-08-17T18:35:52;23.17;;;12.80;;
40541;SDS011;49288;52.194;5.676;2023-08-17T18:41:04;20.13;;;12.38;;
40541;SDS011;49288;52.194;5.676;2023-08-17T18:46:09;25.52;;;14.25;;
40541;SDS011;49288;52.194;5.676;2023-08-17T18:51:12;26.80;;;14.18;;
40541;SDS011;49288;52.194;5.676;2023-08-17T18:56:15;22.58;;;13.15;;
40541;SDS011;49288;52.194;5.676;2023-08-17T19:01:18;20.50;;;12.00;;
40541;SDS011;49288;52.194;5.676;2023-08-17T19:06:22;21.60;;;13.05;;
40541;SDS011;49288;52.194;5.676;2023-08-17T19:11:25;17.70;;;11.82;;
40541;SDS011;49288;52.194;5.676;2023-08-17T19:16:27;20.90;;;13.40;;
40541;SDS011;49288;52.194;5.676;2023-08-17T19:26:34;14.50;;;9.02;;
40541;SDS011;49288;52.194;5.676;2023-08-17T19:31:37;20.67;;;12.85;;
40541;SDS011;49288;52.194;5.676;2023-08-17T19:41:45;20.83;;;12.10;;
40541;SDS011;49288;52.194;5.676;2023-08-17T19:46:49;18.63;;;11.82;;
40541;SDS011;49288;52.194;5.676;2023-08-17T19:51:53;15.73;;;11.23;;
40541;SDS011;49288;52.194;5.676;2023-08-17T19:56:58;16.42;;;11.70;;
40541;SDS011;49288;52.194;5.676;2023-08-17T20:02:02;15.65;;;10.15;;
40541;SDS011;49288;52.194;5.676;2023-08-17T20:07:05;13.93;;;10.65;;
40541;SDS011;49288;52.194;5.676;2023-08-17T20:12:08;14.52;;;11.20;;
40541;SDS011;49288;52.194;5.676;2023-08-17T20:17:11;17.13;;;11.30;;
40541;SDS011;49288;52.194;5.676;2023-08-17T20:22:14;16.33;;;10.15;;
40541;SDS011;49288;52.194;5.676;2023-08-17T20:27:17;14.30;;;11.37;;
40541;SDS011;49288;52.194;5.676;2023-08-17T20:32:20;15.10;;;10.35;;
40541;SDS011;49288;52.194;5.676;2023-08-17T20:37:24;13.77;;;10.63;;
40541;SDS011;49288;52.194;5.676;2023-08-17T20:42:27;17.40;;;12.17;;
40541;SDS011;49288;52.194;5.676;2023-08-17T20:47:30;13.70;;;10.20;;
40541;SDS011;49288;52.194;5.676;2023-08-17T20:52:53;12.33;;;9.17;;
40541;SDS011;49288;52.194;5.676;2023-08-17T20:57:56;11.88;;;8.00;;
40541;SDS011;49288;52.194;5.676;2023-08-17T21:03:00;12.90;;;8.37;;
40541;SDS011;49288;52.194;5.676;2023-08-17T21:08:03;16.97;;;9.40;;
40541;SDS011;49288;52.194;5.676;2023-08-17T21:13:12;12.82;;;8.65;;
40541;SDS011;49288;52.194;5.676;2023-08-17T21:18:14;15.10;;;8.77;;
40541;SDS011;49288;52.194;5.676;2023-08-17T21:23:32;12.30;;;8.30;;
40541;SDS011;49288;52.194;5.676;2023-08-17T21:33:39;11.75;;;8.57;;
40541;SDS011;49288;52.194;5.676;2023-08-17T21:38:42;11.27;;;8.45;;
40541;SDS011;49288;52.194;5.676;2023-08-17T21:43:45;10.15;;;6.97;;
40541;SDS011;49288;52.194;5.676;2023-08-17T21:48:48;15.77;;;8.87;;
40541;SDS011;49288;52.194;5.676;2023-08-17T21:53:51;11.53;;;8.13;;
40541;SDS011;49288;52.194;5.676;2023-08-17T21:58:55;10.93;;;7.63;;
40541;SDS011;49288;52.194;5.676;2023-08-17T22:03:59;10.15;;;7.63;;
40541;SDS011;49288;52.194;5.676;2023-08-17T22:09:03;10.23;;;6.77;;
40541;SDS011;49288;52.194;5.676;2023-08-17T22:14:07;11.80;;;8.25;;
40541;SDS011;49288;52.194;5.676;2023-08-17T22:19:10;16.73;;;8.52;;
40541;SDS011;49288;52.194;5.676;2023-08-17T22:24:13;13.38;;;6.47;;
40541;SDS011;49288;52.194;5.676;2023-08-17T22:29:18;10.23;;;6.47;;
40541;SDS011;49288;52.194;5.676;2023-08-17T22:34:21;11.53;;;7.70;;
40541;SDS011;49288;52.194;5.676;2023-08-17T22:39:27;11.60;;;7.53;;
40541;SDS011;49288;52.194;5.676;2023-08-17T22:44:30;13.77;;;8.63;;
40541;SDS011;49288;52.194;5.676;2023-08-17T22:49:33;10.30;;;7.78;;
40541;SDS011;49288;52.194;5.676;2023-08-17T22:54:36;15.48;;;9.95;;
40541;SDS011;49288;52.194;5.676;2023-08-17T22:59:39;24.47;;;10.73;;
40541;SDS011;49288;52.194;5.676;2023-08-17T23:04:42;15.55;;;9.57;;
40541;SDS011;49288;52.194;5.676;2023-08-17T23:09:45;14.98;;;10.35;;
40541;SDS011;49288;52.194;5.676;2023-08-17T23:14:51;15.17;;;10.00;;
40541;SDS011;49288;52.194;5.676;2023-08-17T23:19:54;11.75;;;8.52;;
40541;SDS011;49288;52.194;5.676;2023-08-17T23:24:57;16.63;;;9.07;;
40541;SDS011;49288;52.194;5.676;2023-08-17T23:30:00;14.40;;;8.98;;
40541;SDS011;49288;52.194;5.676;2023-08-17T23:35:03;16.05;;;9.82;;
40541;SDS011;49288;52.194;5.676;2023-08-17T23:40:06;17.50;;;11.00;;
40541;SDS011;49288;52.194;5.676;2023-08-17T23:45:09;16.75;;;10.63;;
40541;SDS011;49288;52.194;5.676;2023-08-17T23:50:13;17.07;;;9.73;;
40541;SDS011;49288;52.194;5.676;2023-08-17T23:55:16;17.70;;;11.63;;
